Time;durP1;ratioP1;P1;durP2;ratioP2;P2;SDS_P1;SDS_P2;PMS_P1;PMS_P2;Temp;Humidity;BMP_temperature;BMP_pressure;BME280_temperature;BME280_humidity;BME280_pressure;Samples;Min_cycle;Max_cycle;Signal;HPM_P1;HPM_P2
2023/12/07 00:00:35;;;;;;;0.70;0.70;;;;;;;0.21;100.00;99642.66;5095642;28;20349;-59
2023/12/07 00:03:03;;;;;;;0.80;0.80;;;;;;;0.23;100.00;99639.88;5092183;28;20044;-59
2023/12/07 00:05:30;;;;;;;0.55;0.55;;;;;;;0.13;100.00;99640.84;5097581;28;20163;-59
2023/12/07 00:07:58;;;;;;;0.65;0.65;;;;;;;0.08;100.00;99637.91;5090567;28;20093;-58
2023/12/07 00:10:25;;;;;;;0.60;0.60;;;;;;;0.10;100.00;99646.47;5094196;28;20457;-59
2023/12/07 00:12:52;;;;;;;0.80;0.80;;;;;;;-0.01;100.00;99644.13;5100805;28;20040;-59
2023/12/07 00:15:19;;;;;;;0.80;0.80;;;;;;;0.01;100.00;99649.25;5089839;28;20048;-59
2023/12/07 00:17:46;;;;;;;0.90;0.90;;;;;;;-0.06;100.00;99652.53;5092428;28;20047;-59
2023/12/07 00:20:13;;;;;;;0.82;0.82;;;;;;;-0.17;100.00;99649.41;5088209;28;20047;-59
2023/12/07 00:22:41;;;;;;;0.60;0.60;;;;;;;-0.20;100.00;99647.09;5096163;28;20116;-59
2023/12/07 00:25:09;;;;;;;0.80;0.80;;;;;;;-0.18;100.00;99645.13;5093882;28;20051;-58
2023/12/07 00:27:36;;;;;;;0.60;0.60;;;;;;;-0.18;100.00;99639.84;5098293;28;20784;-58
2023/12/07 00:30:04;;;;;;;0.77;0.77;;;;;;;-0.37;100.00;99647.06;5096376;28;20055;-58
2023/12/07 00:32:31;;;;;;;0.60;0.60;;;;;;;-0.31;100.00;99646.41;5096276;27;20187;-59
2023/12/07 00:34:58;;;;;;;0.80;0.80;;;;;;;-0.25;100.00;99648.41;5096151;28;20039;-58
2023/12/07 00:37:25;;;;;;;0.70;0.70;;;;;;;-0.09;100.00;99647.59;5094773;28;20125;-58
2023/12/07 00:39:52;;;;;;;0.80;0.80;;;;;;;-0.09;100.00;99649.41;5097763;28;20046;-58
2023/12/07 00:42:20;;;;;;;0.80;0.80;;;;;;;-0.19;100.00;99661.91;5094484;28;20144;-59
2023/12/07 00:44:47;;;;;;;0.70;0.70;;;;;;;-0.16;100.00;99661.59;5097568;28;20876;-59
2023/12/07 00:47:14;;;;;;;0.90;0.90;;;;;;;-0.33;100.00;99658.91;5095040;28;20056;-58
2023/12/07 00:49:41;;;;;;;0.80;0.80;;;;;;;-0.37;100.00;99673.41;5099283;28;20408;-58
2023/12/07 00:52:08;;;;;;;0.70;0.70;;;;;;;-0.38;100.00;99666.47;5092336;28;20040;-59
2023/12/07 00:54:35;;;;;;;0.77;0.77;;;;;;;-0.40;100.00;99673.75;5099007;28;20501;-58
2023/12/07 00:57:02;;;;;;;0.77;0.77;;;;;;;-0.38;100.00;99666.47;5095073;28;20789;-59
2023/12/07 00:59:33;;;;;;;0.80;0.80;;;;;;;-0.41;100.00;99671.25;5099736;28;20130;-58
2023/12/07 01:02:01;;;;;;;0.73;0.73;;;;;;;-0.43;100.00;99681.94;5097846;28;20593;-59
2023/12/07 01:04:28;;;;;;;0.90;0.90;;;;;;;-0.36;100.00;99676.84;5087880;28;20048;-58
2023/12/07 01:06:55;;;;;;;0.82;0.82;;;;;;;-0.27;100.00;99670.63;5093534;28;20044;-58
2023/12/07 01:09:22;;;;;;;0.80;0.80;;;;;;;-0.24;100.00;99681.66;5091078;28;20059;-58
2023/12/07 01:11:49;;;;;;;0.60;0.60;;;;;;;-0.26;100.00;99675.72;5091399;28;20043;-58
2023/12/07 01:14:17;;;;;;;0.70;0.70;;;;;;;-0.21;100.00;99680.50;5090065;28;20536;-59
2023/12/07 01:16:45;;;;;;;0.85;0.85;;;;;;;-0.12;100.00;99679.56;5088983;28;20060;-58
2023/12/07 01:19:14;;;;;;;0.80;0.80;;;;;;;-0.07;100.00;99684.34;5085413;28;20142;-58
2023/12/07 01:21:41;;;;;;;0.70;0.70;;;;;;;0.02;100.00;99675.44;5094465;28;20043;-58
2023/12/07 01:24:08;;;;;;;0.90;0.90;;;;;;;0.07;100.00;99669.69;5090717;28;20043;-58
2023/12/07 01:26:35;;;;;;;0.73;0.73;;;;;;;0.17;100.00;99679.06;5094656;28;20039;-58
2023/12/07 01:29:02;;;;;;;0.77;0.77;;;;;;;0.15;100.00;99675.78;5095762;28;20058;-59
2023/12/07 01:31:29;;;;;;;0.80;0.80;;;;;;;0.09;100.00;99671.16;5090705;28;20046;-58
2023/12/07 01:33:58;;;;;;;0.70;0.70;;;;;;;0.14;100.00;99679.41;5096243;28;20031;-58
2023/12/07 01:36:26;;;;;;;0.77;0.77;;;;;;;0.18;100.00;99680.72;5096221;28;20044;-59
2023/12/07 01:38:53;;;;;;;0.68;0.68;;;;;;;0.18;100.00;99680.72;5089246;28;20046;-58
2023/12/07 01:41:20;;;;;;;0.80;0.80;;;;;;;0.28;100.00;99674.47;5091541;28;20498;-59
2023/12/07 01:43:47;;;;;;;0.60;0.60;;;;;;;0.34;100.00;99672.00;5090402;28;20142;-58
2023/12/07 01:46:14;;;;;;;0.70;0.70;;;;;;;0.28;100.00;99677.13;5094794;28;20047;-58
2023/12/07 01:48:43;;;;;;;0.60;0.60;;;;;;;0.27;100.00;99680.72;5097276;28;20476;-58
2023/12/07 01:51:11;;;;;;;0.77;0.77;;;;;;;0.28;100.00;99687.66;5089333;28;20231;-58
2023/12/07 01:53:38;;;;;;;0.60;0.60;;;;;;;0.08;100.00;99685.34;5094876;28;20039;-59
2023/12/07 01:56:06;;;;;;;0.90;0.90;;;;;;;-0.03;100.00;99683.00;5090086;28;20047;-59
2023/12/07 01:58:33;;;;;;;0.80;0.80;;;;;;;0.03;100.00;99674.47;5094360;28;20055;-58
2023/12/07 02:01:00;;;;;;;0.60;0.60;;;;;;;0.12;100.00;99676.09;5098509;28;20730;-59
2023/12/07 02:03:29;;;;;;;0.60;0.60;;;;;;;0.09;100.00;99676.44;5094902;28;20048;-58
2023/12/07 02:05:56;;;;;;;0.70;0.70;;;;;;;0.08;100.00;99680.06;5093150;28;20442;-58
2023/12/07 02:08:25;;;;;;;0.80;0.80;;;;;;;0.07;100.00;99680.22;5087917;28;20067;-58
2023/12/07 02:10:52;;;;;;;0.70;0.70;;;;;;;0.15;100.00;99680.22;5099094;28;20515;-58
2023/12/07 02:13:19;;;;;;;0.80;0.80;;;;;;;0.06;100.00;99681.22;5090227;28;20040;-58
2023/12/07 02:15:46;;;;;;;0.77;0.77;;;;;;;-0.03;100.00;99680.38;5097632;28;20044;-59
2023/12/07 02:18:19;;;;;;;0.93;0.93;;;;;;;-0.08;100.00;99690.56;5086484;28;20039;-58
2023/12/07 02:20:48;;;;;;;0.80;0.80;;;;;;;-0.09;100.00;99692.41;5092070;28;20039;-58
2023/12/07 02:23:16;;;;;;;0.80;0.80;;;;;;;-0.08;100.00;99685.31;5086186;28;20823;-58
2023/12/07 02:25:49;;;;;;;0.70;0.70;;;;;;;-0.08;100.00;99694.03;5091667;28;20625;-58
2023/12/07 02:28:18;;;;;;;0.80;0.80;;;;;;;-0.10;100.00;99692.53;5094530;28;20144;-58
2023/12/07 02:30:45;;;;;;;0.70;0.70;;;;;;;-0.16;100.00;99687.94;5097044;28;20428;-58
2023/12/07 02:33:12;;;;;;;0.82;0.82;;;;;;;-0.14;100.00;99697.31;5089456;28;20485;-58
2023/12/07 02:35:39;;;;;;;0.80;0.80;;;;;;;-0.07;100.00;99702.78;5097314;28;20044;-59
2023/12/07 02:38:06;;;;;;;0.75;0.75;;;;;;;-0.06;100.00;99705.25;5093600;27;20101;-59
2023/12/07 02:40:33;;;;;;;0.88;0.88;;;;;;;-0.09;100.00;99704.75;5085729;28;20780;-59
2023/12/07 02:43:01;;;;;;;0.82;0.82;;;;;;;-0.13;100.00;99708.69;5093922;28;20040;-59
2023/12/07 02:45:30;;;;;;;0.80;0.80;;;;;;;-0.05;100.00;99708.69;5093385;28;20048;-58
2023/12/07 02:47:57;;;;;;;0.80;0.80;;;;;;;-0.15;100.00;99711.50;5094689;28;20035;-60
2023/12/07 02:50:25;;;;;;;0.70;0.70;;;;;;;-0.15;100.00;99713.28;5092614;28;20206;-60
2023/12/07 02:52:51;;;;;;;0.63;0.63;;;;;;;-0.24;100.00;99708.00;5095673;27;20040;-59
2023/12/07 02:55:19;;;;;;;0.70;0.70;;;;;;;-0.28;100.00;99711.94;5090644;28;20047;-60
2023/12/07 02:57:46;;;;;;;0.80;0.80;;;;;;;-0.33;100.00;99706.31;5089728;28;20506;-60
2023/12/07 03:00:14;;;;;;;0.88;0.88;;;;;;;-0.35;100.00;99695.16;5087590;28;20645;-60
2023/12/07 03:02:42;;;;;;;0.80;0.80;;;;;;;-0.45;100.00;99704.97;5092954;28;20043;-60
2023/12/07 03:05:09;;;;;;;0.68;0.68;;;;;;;-0.50;100.00;99694.94;5087621;28;20082;-60
2023/12/07 03:07:36;;;;;;;0.85;0.85;;;;;;;-0.52;100.00;99701.34;5092694;28;20039;-60
2023/12/07 03:10:04;;;;;;;0.73;0.73;;;;;;;-0.54;100.00;99708.56;5091572;28;20047;-57
2023/12/07 03:12:31;;;;;;;0.80;0.80;;;;;;;-0.56;100.00;99702.63;5090829;28;20138;-60
2023/12/07 03:14:58;;;;;;;0.73;0.73;;;;;;;-0.52;100.00;99694.25;5089563;28;20564;-59
2023/12/07 03:17:25;;;;;;;0.70;0.70;;;;;;;-0.57;100.00;99696.56;5083805;28;20059;-58
2023/12/07 03:19:54;;;;;;;0.70;0.70;;;;;;;-0.57;100.00;99698.38;5090833;28;20054;-58
2023/12/07 03:22:21;;;;;;;0.80;0.80;;;;;;;-0.61;100.00;99689.13;5089089;28;20109;-60
2023/12/07 03:24:50;;;;;;;0.60;0.60;;;;;;;-0.64;100.00;99689.44;5092527;28;20126;-60
2023/12/07 03:27:17;;;;;;;0.80;0.80;;;;;;;-0.59;100.00;99697.69;5090845;28;20557;-60
2023/12/07 03:29:44;;;;;;;0.90;0.90;;;;;;;-0.64;100.00;99699.97;5099517;28;20140;-60
2023/12/07 03:32:11;;;;;;;0.90;0.90;;;;;;;-0.66;100.00;99700.94;5088645;28;20361;-58
2023/12/07 03:34:38;;;;;;;0.90;0.90;;;;;;;-0.61;100.00;99710.19;5086044;28;20043;-58
2023/12/07 03:37:07;;;;;;;1.00;1.00;;;;;;;-0.63;100.00;99702.44;5093419;28;20050;-58
2023/12/07 03:39:34;;;;;;;0.80;0.80;;;;;;;-0.64;100.00;99713.16;5093916;28;20142;-59
2023/12/07 03:42:01;;;;;;;0.80;0.80;;;;;;;-0.63;100.00;99701.63;5093856;28;20043;-58
2023/12/07 03:44:28;;;;;;;0.88;0.88;;;;;;;-0.67;100.00;99707.22;5090515;28;20533;-58
2023/12/07 03:46:55;;;;;;;0.90;0.90;;;;;;;-0.68;100.00;99704.72;5088736;28;20392;-58
2023/12/07 03:49:22;;;;;;;0.70;0.70;;;;;;;-0.69;100.00;99703.09;5095987;28;20471;-58
2023/12/07 03:51:49;;;;;;;0.70;0.70;;;;;;;-0.76;100.00;99700.25;5094940;28;20500;-58
2023/12/07 03:54:18;;;;;;;0.80;0.80;;;;;;;-0.73;100.00;99692.03;5090540;28;20591;-58
2023/12/07 03:56:45;;;;;;;0.73;0.73;;;;;;;-0.75;100.00;99699.28;5090548;28;20050;-58
2023/12/07 03:59:12;;;;;;;0.80;0.80;;;;;;;-0.76;100.00;99702.88;5096499;28;20579;-58
2023/12/07 04:01:40;;;;;;;0.80;0.80;;;;;;;-0.79;100.00;99692.69;5093999;28;20545;-59
2023/12/07 04:04:07;;;;;;;0.73;0.73;;;;;;;-0.78;100.00;99693.50;5090807;28;20095;-59
2023/12/07 04:06:34;;;;;;;0.80;0.80;;;;;;;-0.78;100.00;99689.03;5095770;28;20046;-59
2023/12/07 04:09:02;;;;;;;0.70;0.70;;;;;;;-0.77;100.00;99695.16;5094177;28;20508;-59
2023/12/07 04:11:30;;;;;;;0.80;0.80;;;;;;;-0.83;100.00;99688.69;5087402;28;20131;-58
2023/12/07 04:13:57;;;;;;;0.93;0.93;;;;;;;-0.81;100.00;99699.91;5093554;28;20055;-57
2023/12/07 04:16:25;;;;;;;1.00;1.00;;;;;;;-0.80;100.00;99705.97;5093026;28;20516;-58
2023/12/07 04:18:53;;;;;;;0.70;0.70;;;;;;;-0.82;100.00;99703.53;5090994;28;20104;-61
2023/12/07 04:21:20;;;;;;;0.63;0.63;;;;;;;-0.83;100.00;99707.13;5082229;28;20051;-60
2023/12/07 04:23:47;;;;;;;0.70;0.70;;;;;;;-0.89;100.00;99708.59;5087656;28;20047;-58
2023/12/07 04:26:15;;;;;;;0.93;0.93;;;;;;;-0.92;100.00;99708.09;5091837;28;20410;-58
2023/12/07 04:28:43;;;;;;;0.82;0.82;;;;;;;-0.91;100.00;99707.91;5089395;28;20051;-58
2023/12/07 04:31:10;;;;;;;0.70;0.70;;;;;;;-0.93;100.00;99706.41;5093334;28;20044;-58
2023/12/07 04:33:37;;;;;;;0.77;0.77;;;;;;;-0.92;100.00;99694.91;5089180;28;20130;-58
2023/12/07 04:36:05;;;;;;;0.70;0.70;;;;;;;-0.82;100.00;99703.53;5094774;28;20039;-59
2023/12/07 04:38:32;;;;;;;0.80;0.80;;;;;;;-0.83;100.00;99707.13;5091038;28;20124;-58
2023/12/07 04:40:59;;;;;;;0.70;0.70;;;;;;;-0.80;100.00;99704.19;5088127;28;20040;-58
2023/12/07 04:43:26;;;;;;;0.85;0.85;;;;;;;-0.81;100.00;99710.44;5086954;28;20051;-58
2023/12/07 04:45:55;;;;;;;0.75;0.75;;;;;;;-0.77;100.00;99711.78;5095154;28;20040;-58
2023/12/07 04:48:21;;;;;;;0.80;0.80;;;;;;;-0.77;100.00;99710.94;5094931;28;20055;-58
2023/12/07 04:50:48;;;;;;;0.80;0.80;;;;;;;-0.83;100.00;99704.50;5096515;28;20046;-59
2023/12/07 04:53:15;;;;;;;0.90;0.90;;;;;;;-0.88;100.00;99709.41;5097252;28;20086;-58
2023/12/07 04:55:46;;;;;;;0.90;0.90;;;;;;;-0.82;100.00;99714.06;5090742;28;20289;-58
2023/12/07 04:58:13;;;;;;;0.70;0.70;;;;;;;-0.81;100.00;99714.88;5095061;28;20508;-59
2023/12/07 05:00:40;;;;;;;0.70;0.70;;;;;;;-0.95;100.00;99721.53;5096416;28;20496;-58
2023/12/07 05:03:09;;;;;;;0.85;0.85;;;;;;;-0.98;100.00;99720.03;5091404;28;20047;-59
2023/12/07 05:05:36;;;;;;;0.70;0.70;;;;;;;-1.00;100.00;99726.44;5092251;28;20044;-58
2023/12/07 05:08:03;;;;;;;0.82;0.82;;;;;;;-0.87;100.00;99730.31;5095159;28;20040;-60
2023/12/07 05:10:30;;;;;;;0.77;0.77;;;;;;;-0.90;100.00;99732.41;5100798;28;20163;-59
2023/12/07 05:12:57;;;;;;;0.63;0.63;;;;;;;-0.94;100.00;99729.28;5097168;28;20047;-58
2023/12/07 05:15:24;;;;;;;0.70;0.70;;;;;;;-0.92;100.00;99737.03;5097070;28;20039;-58
2023/12/07 05:17:51;;;;;;;0.77;0.77;;;;;;;-0.81;100.00;99736.75;5100108;28;20036;-58
2023/12/07 05:20:22;;;;;;;0.77;0.77;;;;;;;-0.80;100.00;99738.41;5097748;28;20261;-58
2023/12/07 05:22:49;;;;;;;0.70;0.70;;;;;;;-0.77;100.00;99734.66;5093703;28;20401;-58
2023/12/07 05:25:16;;;;;;;0.70;0.70;;;;;;;-0.78;100.00;99736.44;5096719;28;20550;-58
2023/12/07 05:27:43;;;;;;;0.85;0.85;;;;;;;-0.89;100.00;99736.72;5090593;28;20065;-59
2023/12/07 05:30:11;;;;;;;0.70;0.70;;;;;;;-0.91;100.00;99741.28;5093677;28;20047;-60
2023/12/07 05:32:38;;;;;;;0.80;0.80;;;;;;;-0.93;100.00;99732.72;5096932;27;20459;-58
2023/12/07 05:35:07;;;;;;;0.90;0.90;;;;;;;-1.01;100.00;99733.50;5096909;28;20040;-60
2023/12/07 05:37:35;;;;;;;0.70;0.70;;;;;;;-1.00;100.00;99732.53;5096563;28;20063;-60
2023/12/07 05:40:02;;;;;;;0.80;0.80;;;;;;;-1.11;100.00;99735.41;5095080;28;20223;-58
2023/12/07 05:42:29;;;;;;;0.80;0.80;;;;;;;-1.09;100.00;99734.28;5094070;28;20468;-60
2023/12/07 05:44:56;;;;;;;0.70;0.70;;;;;;;-1.02;100.00;99738.91;5092557;28;20130;-59
2023/12/07 05:47:24;;;;;;;0.63;0.63;;;;;;;-1.03;100.00;99747.81;5095243;28;20067;-58
2023/12/07 05:49:51;;;;;;;0.80;0.80;;;;;;;-1.11;100.00;99741.50;5093348;28;20538;-60
2023/12/07 05:52:18;;;;;;;0.80;0.80;;;;;;;-1.12;100.00;99744.31;5097800;28;20039;-60
2023/12/07 05:54:46;;;;;;;0.68;0.68;;;;;;;-1.13;100.00;99743.47;5096691;28;20086;-59
2023/12/07 05:57:14;;;;;;;0.70;0.70;;;;;;;-1.27;100.00;99757.19;5099321;27;20487;-59
2023/12/07 05:59:41;;;;;;;0.70;0.70;;;;;;;-1.35;100.00;99762.38;5098325;28;20759;-59
2023/12/07 06:02:08;;;;;;;0.70;0.70;;;;;;;-1.50;100.00;99759.44;5097635;28;20732;-58
2023/12/07 06:04:35;;;;;;;0.85;0.85;;;;;;;-1.52;100.00;99764.88;5095145;28;20052;-59
2023/12/07 06:07:05;;;;;;;0.80;0.80;;;;;;;-1.44;100.00;99765.94;5092535;28;20040;-59
2023/12/07 06:09:32;;;;;;;0.65;0.65;;;;;;;-1.34;100.00;99769.28;5088617;28;20117;-60
2023/12/07 06:12:01;;;;;;;0.63;0.63;;;;;;;-1.35;100.00;99778.16;5088348;28;20410;-60
2023/12/07 06:14:28;;;;;;;0.90;0.90;;;;;;;-1.18;100.00;99789.63;5094000;28;20039;-59
2023/12/07 06:16:55;;;;;;;0.70;0.70;;;;;;;-1.44;100.00;99784.34;5088805;28;20136;-59
2023/12/07 06:19:22;;;;;;;0.65;0.65;;;;;;;-1.51;100.00;99781.47;5087914;28;20112;-59
2023/12/07 06:21:49;;;;;;;1.00;1.00;;;;;;;-1.62;100.00;99782.53;5090731;28;20131;-60
2023/12/07 06:24:16;;;;;;;0.82;0.82;;;;;;;-1.66;100.00;99777.72;5096907;28;20040;-59
2023/12/07 06:26:43;;;;;;;0.90;0.90;;;;;;;-1.50;100.00;99782.28;5091012;28;20039;-59
2023/12/07 06:29:11;;;;;;;0.90;0.90;;;;;;;-1.40;100.00;99777.78;5092941;28;20522;-59
2023/12/07 06:31:43;;;;;;;0.60;0.60;;;;;;;-1.42;100.00;99769.19;5092865;28;20273;-59
2023/12/07 06:34:10;;;;;;;0.70;0.70;;;;;;;-1.22;100.00;99762.81;5089863;28;20119;-59
2023/12/07 06:36:37;;;;;;;0.80;0.80;;;;;;;-1.20;100.00;99774.00;5092573;28;20042;-58
2023/12/07 06:39:04;;;;;;;0.73;0.73;;;;;;;-1.10;100.00;99769.47;5098022;28;20067;-59
2023/12/07 06:41:31;;;;;;;0.80;0.80;;;;;;;-0.96;100.00;99767.25;5096219;28;20040;-59
2023/12/07 06:43:58;;;;;;;0.90;0.90;;;;;;;-1.01;100.00;99761.63;5094232;28;20043;-59
2023/12/07 06:46:27;;;;;;;0.70;0.70;;;;;;;-0.98;100.00;99756.88;5092301;28;20138;-60
2023/12/07 06:48:54;;;;;;;0.70;0.70;;;;;;;-0.88;100.00;99754.13;5095760;28;20050;-59
2023/12/07 06:51:24;;;;;;;0.98;0.98;;;;;;;-0.90;100.00;99742.94;5097367;28;20120;-59
2023/12/07 06:53:51;;;;;;;0.60;0.60;;;;;;;-0.87;100.00;99754.00;5094758;28;20048;-58
2023/12/07 06:56:18;;;;;;;0.90;0.90;;;;;;;-0.90;100.00;99750.84;5094623;28;20554;-58
2023/12/07 06:58:45;;;;;;;0.90;0.90;;;;;;;-0.93;100.00;99749.34;5087305;28;20043;-59
2023/12/07 07:01:13;;;;;;;0.68;0.68;;;;;;;-1.00;100.00;99756.22;5102995;27;20044;-60
2023/12/07 07:03:42;;;;;;;0.63;0.63;;;;;;;-0.86;100.00;99762.72;5087745;27;20496;-58
2023/12/07 07:06:09;;;;;;;0.70;0.70;;;;;;;-0.89;100.00;99749.88;5089674;28;20068;-59
2023/12/07 07:08:36;;;;;;;0.80;0.80;;;;;;;-0.83;100.00;99754.50;5095132;28;20044;-57
2023/12/07 07:11:12;;;;;;;0.80;0.80;;;;;;;-0.78;100.00;99748.78;5090523;28;20036;-58
2023/12/07 07:13:39;;;;;;;0.80;0.80;;;;;;;-0.79;100.00;99740.06;5088161;28;20043;-59
2023/12/07 07:16:07;;;;;;;0.80;0.80;;;;;;;-0.74;100.00;99748.31;5087168;28;20062;-59
2023/12/07 07:18:35;;;;;;;0.77;0.77;;;;;;;-0.73;100.00;99743.84;5087264;28;20047;-59
2023/12/07 07:21:04;;;;;;;0.80;0.80;;;;;;;-0.68;100.00;99736.31;5090531;28;20139;-59
2023/12/07 07:23:31;;;;;;;0.80;0.80;;;;;;;-0.64;100.00;99734.22;5089132;28;20120;-59
2023/12/07 07:25:58;;;;;;;0.68;0.68;;;;;;;-0.61;100.00;99745.25;5092717;28;20051;-59
2023/12/07 07:28:25;;;;;;;0.65;0.65;;;;;;;-0.62;100.00;99745.38;5089313;28;20097;-59
2023/12/07 07:30:53;;;;;;;0.80;0.80;;;;;;;-0.57;100.00;99737.88;5091810;28;20040;-59
2023/12/07 07:33:20;;;;;;;0.65;0.65;;;;;;;-0.57;100.00;99743.13;5092588;28;20039;-59
2023/12/07 07:35:47;;;;;;;0.80;0.80;;;;;;;-0.51;100.00;99742.47;5094009;28;20142;-59
2023/12/07 07:38:15;;;;;;;0.80;0.80;;;;;;;-0.40;100.00;99739.59;5082801;28;20048;-59
2023/12/07 07:40:42;;;;;;;0.70;0.70;;;;;;;-0.41;100.00;99740.53;5094038;28;20633;-59
2023/12/07 07:43:09;;;;;;;0.70;0.70;;;;;;;-0.42;100.00;99741.53;5094280;28;20040;-59
2023/12/07 07:45:36;;;;;;;0.60;0.60;;;;;;;-0.35;100.00;99737.28;5091217;28;20076;-60
2023/12/07 07:48:04;;;;;;;0.70;0.70;;;;;;;-0.30;100.00;99740.28;5090083;28;20541;-59
2023/12/07 07:50:31;;;;;;;0.73;0.73;;;;;;;-0.24;100.00;99744.88;5091741;28;20405;-59
2023/12/07 07:52:58;;;;;;;0.73;0.73;;;;;;;-0.24;100.00;99734.34;5090347;28;20505;-59
2023/12/07 07:55:26;;;;;;;0.80;0.80;;;;;;;-0.25;100.00;99743.25;5089711;28;20108;-59
2023/12/07 07:57:53;;;;;;;0.80;0.80;;;;;;;-0.15;100.00;99748.38;5094423;28;20587;-59
2023/12/07 08:00:21;;;;;;;0.77;0.77;;;;;;;-0.21;100.00;99743.75;5091848;28;20056;-59
2023/12/07 08:02:48;;;;;;;0.80;0.80;;;;;;;-0.31;100.00;99743.88;5083871;28;20568;-58
2023/12/07 08:05:15;;;;;;;0.80;0.80;;;;;;;-0.32;100.00;99736.97;5083213;28;20043;-59
2023/12/07 08:07:42;;;;;;;0.70;0.70;;;;;;;-0.12;100.00;99732.25;5085242;28;20097;-58
2023/12/07 08:10:09;;;;;;;0.80;0.80;;;;;;;-0.08;100.00;99727.47;5092775;28;20052;-59
2023/12/07 08:12:38;;;;;;;0.70;0.70;;;;;;;-0.12;100.00;99726.97;5091331;28;20047;-59
2023/12/07 08:15:10;;;;;;;0.85;0.85;;;;;;;-0.06;100.00;99720.22;5093898;28;20533;-59
2023/12/07 08:17:38;;;;;;;0.70;0.70;;;;;;;-0.11;100.00;99733.06;5088859;28;20454;-58
2023/12/07 08:20:08;;;;;;;0.60;0.60;;;;;;;-0.09;100.00;99731.91;5094188;28;20044;-59
2023/12/07 08:22:35;;;;;;;0.60;0.60;;;;;;;0.05;100.00;99733.13;5085595;28;20154;-59
2023/12/07 08:25:05;;;;;;;0.82;0.82;;;;;;;0.06;100.00;99737.38;5084877;28;20040;-59
2023/12/07 08:27:32;;;;;;;0.80;0.80;;;;;;;0.04;100.00;99734.09;5091070;28;20048;-59
2023/12/07 08:30:01;;;;;;;0.60;0.60;;;;;;;0.04;100.00;99744.63;5095982;28;20063;-59
2023/12/07 08:32:29;;;;;;;0.70;0.70;;;;;;;0.04;100.00;99730.63;5097343;28;20044;-59
2023/12/07 08:34:56;;;;;;;0.77;0.77;;;;;;;0.10;100.00;99735.25;5095807;28;20064;-58
2023/12/07 08:37:23;;;;;;;0.75;0.75;;;;;;;0.12;100.00;99743.81;5086608;28;20043;-59
2023/12/07 08:39:50;;;;;;;0.70;0.70;;;;;;;0.09;100.00;99744.97;5095261;28;20047;-59
2023/12/07 08:42:17;;;;;;;0.60;0.60;;;;;;;0.01;100.00;99746.78;5095715;28;20520;-59
2023/12/07 08:44:44;;;;;;;0.77;0.77;;;;;;;0.04;100.00;99744.63;5093486;28;20050;-59
2023/12/07 08:47:16;;;;;;;0.57;0.57;;;;;;;-0.03;100.00;99744.44;5091037;28;20139;-59
2023/12/07 08:49:44;;;;;;;0.80;0.80;;;;;;;-0.02;100.00;99745.28;5095231;28;20537;-59
2023/12/07 08:52:11;;;;;;;0.77;0.77;;;;;;;-0.05;100.00;99748.22;5095352;27;20549;-58
2023/12/07 08:54:39;;;;;;;0.60;0.60;;;;;;;-0.01;100.00;99745.09;5086157;28;20402;-59
2023/12/07 08:57:07;;;;;;;0.80;0.80;;;;;;;-0.02;100.00;99743.47;5097094;28;20063;-59
2023/12/07 08:59:34;;;;;;;0.70;0.70;;;;;;;0.12;100.00;99741.19;5092859;28;20134;-59
2023/12/07 09:02:03;;;;;;;0.63;0.63;;;;;;;0.19;100.00;99742.19;5098747;27;20055;-59
2023/12/07 09:04:31;;;;;;;0.77;0.77;;;;;;;0.23;100.00;99742.69;5090620;28;20076;-60
2023/12/07 09:06:59;;;;;;;0.75;0.75;;;;;;;0.26;100.00;99745.00;5108247;27;20417;-60
2023/12/07 09:09:26;;;;;;;0.70;0.70;;;;;;;0.25;100.00;99746.81;5096914;28;20043;-60
2023/12/07 09:11:53;;;;;;;0.80;0.80;;;;;;;0.17;100.00;99750.25;5089727;27;20190;-58
2023/12/07 09:14:22;;;;;;;0.57;0.57;;;;;;;0.14;100.00;99747.94;5088691;28;20123;-59
2023/12/07 09:16:49;;;;;;;0.60;0.60;;;;;;;0.07;100.00;99751.38;5090598;28;20040;-58
2023/12/07 09:19:16;;;;;;;0.80;0.80;;;;;;;0.18;100.00;99749.28;5097754;28;20048;-59
2023/12/07 09:21:44;;;;;;;0.63;0.63;;;;;;;0.38;100.00;99746.34;5095031;28;20158;-58
2023/12/07 09:24:11;;;;;;;0.70;0.70;;;;;;;0.21;100.00;99743.66;5086375;28;20048;-58
2023/12/07 09:26:38;;;;;;;0.80;0.80;;;;;;;0.19;100.00;99745.63;5092526;28;20082;-59
2023/12/07 09:29:06;;;;;;;0.80;0.80;;;;;;;0.07;100.00;99746.94;5093171;28;20555;-59
2023/12/07 09:31:33;;;;;;;0.80;0.80;;;;;;;0.12;100.00;99739.34;5096948;28;20897;-59
2023/12/07 09:34:01;;;;;;;0.68;0.68;;;;;;;0.23;100.00;99734.78;5095502;28;20429;-58
2023/12/07 09:36:28;;;;;;;0.80;0.80;;;;;;;0.08;100.00;99743.31;5092748;28;20066;-58
2023/12/07 09:38:57;;;;;;;0.80;0.80;;;;;;;0.47;100.00;99745.31;5092485;28;20075;-58
2023/12/07 09:41:24;;;;;;;0.75;0.75;;;;;;;0.34;100.00;99737.91;5090679;28;20138;-58
2023/12/07 09:43:51;;;;;;;0.80;0.80;;;;;;;0.53;100.00;99739.41;5096303;28;20044;-59
2023/12/07 09:46:19;;;;;;;0.75;0.75;;;;;;;0.62;100.00;99741.06;5096934;28;20497;-59
2023/12/07 09:48:46;;;;;;;0.70;0.70;;;;;;;0.38;100.00;99741.06;5089310;28;20048;-58
2023/12/07 09:51:13;;;;;;;0.60;0.60;;;;;;;0.71;100.00;99730.50;5092853;28;20044;-60
2023/12/07 09:53:39;;;;;;;0.65;0.65;;;;;;;0.59;100.00;99738.75;5089109;28;20044;-61
2023/12/07 09:56:09;;;;;;;0.70;0.70;;;;;;;0.20;100.00;99733.28;5093011;28;20050;-61
2023/12/07 09:58:37;;;;;;;0.70;0.70;;;;;;;0.38;100.00;99733.97;5076216;28;20059;-59
2023/12/07 10:01:05;;;;;;;0.63;0.63;;;;;;;0.48;100.00;99739.09;5093187;28;20397;-59
2023/12/07 10:03:32;;;;;;;0.63;0.63;;;;;;;0.42;100.00;99745.00;5093581;28;20047;-61
2023/12/07 10:05:59;;;;;;;0.65;0.65;;;;;;;0.50;100.00;99755.56;5092347;28;20132;-59
2023/12/07 10:08:27;;;;;;;0.65;0.65;;;;;;;0.54;100.00;99753.41;5096209;28;20040;-60
2023/12/07 10:11:03;;;;;;;0.70;0.70;;;;;;;0.40;100.00;99749.59;5093219;28;20055;-59
2023/12/07 10:13:32;;;;;;;0.60;0.60;;;;;;;0.36;100.00;99743.03;5092558;27;20120;-59
2023/12/07 10:16:10;;;;;;;0.77;0.77;;;;;;;0.23;100.00;99745.34;5091086;28;20393;-60
2023/12/07 10:18:39;;;;;;;0.70;0.70;;;;;;;0.50;100.00;99742.38;5087113;28;20525;-59
2023/12/07 10:21:07;;;;;;;0.70;0.70;;;;;;;0.60;100.00;99740.41;5095729;27;20070;-60
2023/12/07 10:23:34;;;;;;;0.80;0.80;;;;;;;0.83;100.00;99726.53;5087615;28;20036;-60
2023/12/07 10:26:01;;;;;;;0.60;0.60;;;;;;;0.59;100.00;99730.81;5092004;28;20043;-60
2023/12/07 10:28:29;;;;;;;0.80;0.80;;;;;;;0.29;100.00;99739.41;5092255;28;20469;-59
2023/12/07 10:30:58;;;;;;;0.60;0.60;;;;;;;0.24;100.00;99736.44;5094071;28;20158;-59
2023/12/07 10:33:26;;;;;;;0.70;0.70;;;;;;;0.46;100.00;99740.25;5095855;28;20039;-59
2023/12/07 10:35:53;;;;;;;0.63;0.63;;;;;;;0.64;100.00;99725.06;5094240;28;20036;-59
2023/12/07 10:38:21;;;;;;;0.77;0.77;;;;;;;0.69;100.00;99724.56;5090349;28;20376;-59
2023/12/07 10:40:48;;;;;;;0.70;0.70;;;;;;;0.52;100.00;99716.66;5093493;28;20043;-59
2023/12/07 10:43:15;;;;;;;0.68;0.68;;;;;;;0.33;100.00;99704.63;5094347;28;20057;-59
2023/12/07 10:45:43;;;;;;;0.70;0.70;;;;;;;0.54;100.00;99698.84;5073738;28;20047;-59
2023/12/07 10:48:12;;;;;;;0.80;0.80;;;;;;;0.95;100.00;99682.97;5090401;28;20040;-59
2023/12/07 10:50:43;;;;;;;0.77;0.77;;;;;;;1.03;100.00;99688.22;5091989;28;20781;-60
2023/12/07 10:53:11;;;;;;;0.70;0.70;;;;;;;0.87;100.00;99675.03;5096418;28;20479;-60
2023/12/07 10:55:43;;;;;;;0.77;0.77;;;;;;;1.27;100.00;99675.91;5091245;28;20040;-59
2023/12/07 10:58:10;;;;;;;0.70;0.70;;;;;;;1.38;100.00;99678.19;5094906;28;20139;-60
2023/12/07 11:00:37;;;;;;;0.70;0.70;;;;;;;1.49;100.00;99663.75;5084662;28;20142;-60
2023/12/07 11:03:04;;;;;;;0.60;0.60;;;;;;;0.72;100.00;99660.91;5087193;28;20067;-60
2023/12/07 11:05:33;;;;;;;0.63;0.63;;;;;;;1.68;100.00;99650.13;5092325;28;20525;-59
2023/12/07 11:08:03;;;;;;;0.60;0.60;;;;;;;1.82;100.00;99645.91;5093603;28;20043;-60
2023/12/07 11:10:34;;;;;;;0.63;0.63;;;;;;;0.90;100.00;99642.22;5096248;28;20048;-60
2023/12/07 11:13:06;;;;;;;0.68;0.68;;;;;;;1.46;100.00;99630.59;5086357;28;20454;-59
2023/12/07 11:15:33;;;;;;;0.60;0.60;;;;;;;1.61;100.00;99625.38;5095838;28;20411;-59
2023/12/07 11:18:00;;;;;;;0.70;0.70;;;;;;;1.32;100.00;99628.69;5099946;28;20155;-59
2023/12/07 11:20:41;;;;;;;0.60;0.60;;;;;;;1.22;100.00;99621.00;5095314;28;20040;-60
2023/12/07 11:23:08;;;;;;;0.60;0.60;;;;;;;0.88;100.00;99623.94;5083966;28;20067;-59
2023/12/07 11:25:35;;;;;;;0.60;0.60;;;;;;;1.54;100.00;99613.06;5086739;28;20701;-59
2023/12/07 11:28:03;;;;;;;0.70;0.70;;;;;;;1.55;100.00;99604.13;5090953;28;20409;-59
2023/12/07 11:30:31;;;;;;;0.60;0.60;;;;;;;1.25;100.00;99601.34;5097775;28;20487;-59